Piloto por un Día

El Centro de Instrucción de Aeronáutica Civil te ofrece la oportunidad de Volar un Avión, ingresando al programa Piloto por un Dia, donde ademas se te brindara un curso teórico y practicaras en el simulador antes de volar un avión real del Aeroclub Mar del Plata bajo la asistencia de un Instructor de Vuelo.

Comunícate con nosotros y reserva un dia para cumplir tu sueño de volar.

 

 

 

 

 

 

Facebook Aeroclub Mar del Plata

Informe Climatico
MAR DEL PLATA AR
Metar
SAZM 260000Z 16010KT 9999 BKN020 14/10 Q1023

00:00 UTC

Wind: 160° 10kt

Visibility: 9999 m

Sky: BKN 2000 ft

Temp: 14 deg C / 57.2 deg F

Dewpoint: 10 deg C / 50 deg F

Pressure: 1023 hPa

TAF
TAF SAZM 252300Z 2600/2624 16015KT 9999 SCT020 TX18/2618Z TN12/2610Z BECMG 2604/2606 14010KT 8000 BKN010 PROB30 2607/2610 6000 DZ OVC007 BECMG 2615/2618 11010KT 9999 BKN020
1
Hola ¿ En qué podemos ayudarte? Puedes consultarnos sobre nuestras actividades aquí...
Powered by